• Join FlightAware (Why Join?)
  • Login
  • US Flag 
11:51AM EDT


 

Airport Tracker/Info


-or-


 

Live Flight TrackerFlight Track Log ✈ N53NW ✈ 21-Oct-2013 ✈ KLAS - KLIT

Flight Track Log - Related Links

Times and Time Zones

All times are in EDT time to prevent confusion due to time zone crossing. See the N53NW flight status page for this flight to view local times or setup timezone preferences in your user account.

Time Position Orientation Groundspeed Altitude Reporting Facility
EDT Latitude Longitude Course Direction KTS MPH feet Rate Location/Type
07:29PM 36.0586 -115.1767 200° South 195 224 3,200  Level Los Angeles Center
07:30PM 36.0464 -115.1822 200° South 202 232 3,700 2,460 Climbing Los Angeles Center
07:31PM 35.9983 -115.2394 224° Southwest 260 299 6,500 2,640 Climbing Los Angeles Center
07:31PM 35.9972 -115.2419 241° Southwest 243 280 6,500 2,220 Level Los Angeles Center
07:32PM 35.9475 -115.2889 217° Southwest 264 304 8,800 1,380 Climbing Los Angeles Center
07:33PM 35.8714 -115.2594 163° South 272 313 9,400 540 Climbing Los Angeles Center
07:33PM 35.8722 -115.2575 62° Northeast 279 321 9,400 1,320 Level Los Angeles Center
07:34PM 35.8456 -115.1769 112° Southeast 271 312 10,800 1,740 Climbing Los Angeles Center
07:35PM 35.8242 -115.0831 106° East 279 321 13,100 2,520 Climbing Los Angeles Center
07:36PM 35.8331 -114.9608 85° East 296 341 16,100 2,700 Climbing Los Angeles Center
07:37PM 35.8411 -114.8636 84° East 292 336 18,700 2,220 Climbing Los Angeles Center
07:38PM 35.8500 -114.7672 83° East 288 331 20,800 1,800 Climbing Los Angeles Center
07:39PM 35.8583 -114.6656 84° East 291 335 22,500 1,560 Climbing Los Angeles Center
07:40PM 35.8667 -114.5556 85° East 305 351 24,100 1,560 Climbing Los Angeles Center
07:41PM 35.8767 -114.4406 84° East 321 369 25,800 1,740 Climbing Los Angeles Center
07:42PM 35.8883 -114.2989 84° East 336 387 27,700 1,680 Climbing Los Angeles Center
07:43PM 35.8989 -114.1772 84° East 348 400 29,300 1,500 Climbing Los Angeles Center
07:44PM 35.9097 -114.0556 84° East 357 411 30,900 1,500 Climbing Los Angeles Center
07:45PM 35.9192 -113.9308 85° East 363 418 32,500 1,500 Climbing Los Angeles Center
07:46PM 35.9194 -113.8086 90° East 358 412 34,100 1,380 Climbing Los Angeles Center
07:47PM 35.9186 -113.6864 90° East 357 411 35,400 1,140 Climbing Los Angeles Center
07:48PM 35.9175 -113.5428 91° East 361 415 36,500 960 Climbing Los Angeles Center
07:49PM 35.9175 -113.4150 90° East 369 425 37,500 960 Climbing Los Angeles Center
07:50PM 35.9161 -113.2883 91° East 371 427 38,500 960 Climbing Los Angeles Center
07:51PM 35.9156 -113.1625 90° East 369 425 39,500 780 Climbing Los Angeles Center
07:52PM 35.9147 -113.0617 91° East 368 423 40,200 720 Climbing Los Angeles Center
07:53PM 35.9117 -112.8847 91° East 369 425 41,000 360 Climbing Los Angeles Center
07:55PM 35.9097 -112.7514 91° East 381 438 41,000  Level Los Angeles Center
07:56PM 35.9081 -112.6139 91° East 395 455 41,000  Level Los Angeles Center
07:57PM 35.9058 -112.4758 91° East 402 463 41,000  Level Los Angeles Center
07:58PM 35.9028 -112.3397 92° East 399 459 41,000  Level Los Angeles Center
07:59PM 35.9003 -112.2028 91° East 400 460 41,000  Level Los Angeles Center
08:00PM 35.8972 -112.0375 91° East 402 463 41,000  Level Los Angeles Center
08:01PM 35.8925 -111.8983 92° East 406 467 41,000  Level Los Angeles Center
08:02PM 35.8897 -111.7581 91° East 411 473 41,000  Level Los Angeles Center
08:03PM 35.8936 -111.6192 88° East 409 471 41,000  Level Los Angeles Center
08:04PM 35.8964 -111.4839 89° East 402 463 41,000  Level Los Angeles Center
08:05PM 35.9011 -111.3158 88° East 408 470 41,000  Level Denver Center
08:06PM 35.9025 -111.1494 89° East 407 468 41,000  Level Denver Center
08:07PM 35.9044 -111.0103 89° East 407 468 41,000  Level Denver Center
08:09PM 35.9081 -110.7297 89° East 411 473 41,000  Level Denver Center
08:10PM 35.9097 -110.5897 89° East 410 472 41,000  Level Denver Center
08:11PM 35.9097 -110.4225 90° East 408 470 41,000  Level Denver Center
08:12PM 35.9119 -110.2817 89° East 411 473 41,000  Level Denver Center
08:13PM 35.9133 -110.1392 89° East 415 478 41,000  Level Denver Center
08:14PM 35.9142 -109.9906 90° East 418 481 41,000  Level Denver Center
08:15PM 35.9150 -109.8517 90° East 422 486 41,000  Level Denver Center
08:16PM 35.9147 -109.6886 90° East 424 488 41,000  Level Denver Center
08:17PM 35.9147 -109.5503 90° East 423 487 41,000  Level Denver Center
08:18PM 35.9153 -109.3897 90° East 421 484 41,000  Level Denver Center
08:20PM 35.9144 -109.2531 90° East 418 481 41,000  Level Denver Center
08:21PM 35.9142 -109.0939 90° East 418 481 41,000  Level Denver Center
08:22PM 35.9122 -108.9581 91° East 418 481 41,000  Level Denver Center
08:23PM 35.9119 -108.7983 90° East 423 487 41,000  Level Denver Center
08:24PM 35.9128 -108.6394 90° East 421 484 41,000  Level Denver Center
08:25PM 35.9117 -108.5039 91° East 417 480 41,000  Level Denver Center
08:26PM 35.9108 -108.3467 90° East 413 475 41,000  Level Denver Center
08:27PM 35.9092 -108.2114 91° East 413 475 41,000  Level Denver Center
08:28PM 35.9075 -108.0758 91° East 413 475 41,000  Level Denver Center
08:29PM 35.9058 -107.9181 91° East 414 476 41,000  Level Denver Center
08:30PM 35.9039 -107.7369 91° East 415 478 41,000  Level Albuquerque Center
08:31PM 35.9019 -107.6008 91° East 416 479 41,000  Level Albuquerque Center
08:32PM 35.9000 -107.4414 91° East 416 479 41,000  Level Albuquerque Center
08:33PM 35.8975 -107.3050 91° East 416 479 41,000  Level Albuquerque Center
08:34PM 35.8944 -107.1442 91° East 419 482 41,000  Level Albuquerque Center
08:35PM 35.8906 -107.0072 92° East 419 482 41,000  Level Albuquerque Center
08:36PM 35.8894 -106.8700 91° East 418 481 41,000  Level Albuquerque Center
08:37PM 35.8853 -106.7114 92° East 416 479 41,000  Level Albuquerque Center
08:38PM 35.8814 -106.5742 92° East 418 481 41,000  Level Albuquerque Center
08:39PM 35.8783 -106.4161 91° East 425 489 41,000  Level Albuquerque Center
08:40PM 35.8739 -106.2708 92° East 426 490 41,000  Level Albuquerque Center
08:41PM 35.8753 -106.1214 89° East 415 478 41,000  Level Albuquerque Center
08:42PM 35.8700 -105.9756 93° East 420 483 41,000  Level Albuquerque Center
08:43PM 35.8650 -105.8267 92° East 430 495 41,000  Level Albuquerque Center
08:44PM 35.8606 -105.6789 92° East 432 497 41,000  Level Albuquerque Center
08:45PM 35.8553 -105.5353 93° East 432 497 41,000  Level Albuquerque Center
08:46PM 35.8500 -105.3872 92° East 431 496 41,000  Level Albuquerque Center
08:47PM 35.8456 -105.2381 92° East 431 496 41,000  Level Albuquerque Center
08:49PM 35.8397 -105.0619 92° East 434 499 41,000  Level Albuquerque Center
08:50PM 35.8342 -104.9131 93° East 432 497 41,000  Level Albuquerque Center
08:51PM 35.8275 -104.7650 93° East 429 494 41,000  Level Albuquerque Center
08:52PM 35.8214 -104.6158 93° East 430 495 41,000  Level Albuquerque Center
08:53PM 35.8158 -104.4686 93° East 427 491 41,000  Level Albuquerque Center
08:54PM 35.8100 -104.3197 93° East 427 491 41,000  Level Albuquerque Center
08:55PM 35.8033 -104.1703 93° East 430 495 41,000  Level Albuquerque Center
08:56PM 35.7969 -104.0219 93° East 429 494 41,000  Level Albuquerque Center
08:57PM 35.7894 -103.8731 94° East 430 495 41,000  Level Albuquerque Center
08:58PM 35.7828 -103.7233 93° East 432 497 41,000  Level Albuquerque Center
08:59PM 35.7747 -103.5750 94° East 430 495 41,000  Level Albuquerque Center
09:00PM 35.7681 -103.4272 93° East 430 495 41,000  Level Albuquerque Center
09:01PM 35.7614 -103.2786 93° East 430 495 41,000  Level Albuquerque Center
09:02PM 35.7542 -103.1311 93° East 428 493 41,000  Level Albuquerque Center
09:03PM 35.7453 -102.9817 94° East 432 497 41,000  Level Albuquerque Center
09:04PM 35.7375 -102.8339 94° East 431 496 41,000  Level Albuquerque Center
09:05PM 35.7297 -102.6867 94° East 432 497 41,000  Level Albuquerque Center
09:06PM 35.7217 -102.5392 94° East 433 498 41,000  Level Albuquerque Center
09:07PM 35.7100 -102.3636 95° East 430 495 41,000  Level Albuquerque Center
09:08PM 35.7031 -102.2158 93° East 432 497 41,000  Level Albuquerque Center
09:09PM 35.6933 -102.0692 95° East 430 495 41,000  Level Albuquerque Center
09:10PM 35.6853 -101.9214 94° East 431 496 41,000  Level Albuquerque Center
09:11PM 35.6747 -101.7736 95° East 431 496 41,000  Level Albuquerque Center
09:12PM 35.6658 -101.6264 94° East 430 495 41,000  Level Albuquerque Center
09:13PM 35.6567 -101.4775 94° East 432 497 41,000  Level Albuquerque Center
09:14PM 35.6464 -101.3294 95° East 433 498 41,000  Level Albuquerque Center
09:15PM 35.6364 -101.1825 95° East 431 496 41,000  Level Albuquerque Center
09:16PM 35.6272 -101.0336 94° East 434 499 41,000  Level Albuquerque Center
09:17PM 35.6142 -100.8569 95° East 433 498 41,000  Level Albuquerque Center
09:18PM 35.6042 -100.7100 95° East 432 497 41,000  Level Albuquerque Center
09:19PM 35.5939 -100.5744 95° East 431 496 41,000  Level Albuquerque Center
09:20PM 35.5825 -100.4275 95° East 432 497 41,000  Level Albuquerque Center
09:21PM 35.5711 -100.2808 95° East 432 497 41,000  Level Albuquerque Center
09:22PM 35.5592 -100.1342 96° East 432 497 41,000  Level Albuquerque Center
09:23PM 35.5458 -99.9572 95° East 433 498 41,000  Level Albuquerque Center
09:24PM 35.5336 -99.8106 96° East 433 498 41,000  Level Albuquerque Center
09:25PM 35.5228 -99.6628 95° East 435 501 41,000  Level Albuquerque Center
09:26PM 35.5128 -99.5658 97° East 426 490 41,000  Level Fort Worth Center
09:27PM 35.5006 -99.4203 96° East 426 490 41,000  Level Fort Worth Center
09:28PM 35.4883 -99.2719 96° East 426 490 41,000  Level Fort Worth Center
09:29PM 35.4778 -99.1267 95° East 426 490 41,000  Level Fort Worth Center
09:30PM 35.4611 -98.9606 97° East 435 501 41,000  Level Fort Worth Center
09:31PM 35.4506 -98.8125 95° East 435 501 41,000  Level Fort Worth Center
09:32PM 35.4375 -98.6672 96° East 435 501 41,000  Level Fort Worth Center
09:33PM 35.4242 -98.5217 96° East 435 501 41,000  Level Fort Worth Center
09:34PM 35.4128 -98.3814 96° East 425 489 41,000  Level Fort Worth Center
09:35PM 35.3972 -98.2361 97° East 425 489 41,000  Level Fort Worth Center
09:36PM 35.3836 -98.0883 96° East 425 489 41,000  Level Fort Worth Center
09:37PM 35.3697 -97.9431 97° East 425 489 41,000  Level Fort Worth Center
09:38PM 35.3536 -97.7953 98° East 425 489 41,000  Level Fort Worth Center
09:39PM 35.3392 -97.6503 97° East 425 489 41,000  Level Fort Worth Center
09:40PM 35.3228 -97.5025 98° East 425 489 41,000  Level Fort Worth Center
09:41PM 35.3144 -97.3653 94° East 446 513 41,000  Level Fort Worth Center
09:42PM 35.3017 -97.2153 96° East 446 513 41,000  Level Fort Worth Center
09:43PM 35.2806 -97.0678 100° East 446 513 41,000  Level Fort Worth Center
09:44PM 35.2656 -96.9228 97° East 446 513 41,000  Level Fort Worth Center
09:45PM 35.2503 -96.7756 97° East 440 506 41,000  Level Fort Worth Center
09:46PM 35.2347 -96.6281 97° East 440 506 41,000  Level Fort Worth Center
09:47PM 35.2192 -96.4836 97° East 440 506 41,000  Level Fort Worth Center
09:48PM 35.2036 -96.3339 97° East 440 506 41,000  Level Fort Worth Center
09:49PM 35.1856 -96.1867 98° East 440 506 41,000  Level Fort Worth Center
09:50PM 35.1694 -96.0394 98° East 445 512 41,000  Level Fort Worth Center
09:51PM 35.1508 -95.8900 99° East 445 512 41,000  Level Fort Worth Center
09:52PM 35.1386 -95.7431 96° East 445 512 41,000 -600 Level Fort Worth Center
09:53PM 35.1219 -95.5961 98° East 445 512 39,800 -1,200 Descending Fort Worth Center
09:55PM 35.0869 -95.3008 98° East 432 497 37,500 -1,200 Descending Memphis Center
09:56PM 35.0703 -95.1503 98° East 441 507 36,300 -1,200 Descending Memphis Center
09:57PM 35.0517 -94.9989 98° East 449 517 35,100 -660 Descending Memphis Center
09:58PM 35.0333 -94.8475 98° East 451 519 35,000 -660 Descending Memphis Center
09:59PM 35.0150 -94.7006 99° East 443 510 33,800 -1,320 Descending Memphis Center
10:00PM 34.9969 -94.5461 98° East 446 513 32,300 -1,440 Descending Memphis Center
10:01PM 34.9781 -94.3947 99° East 452 520 30,900 -1,620 Descending Memphis Center
10:02PM 34.9550 -94.2117 99° East 456 525 29,100 -1,680 Descending Memphis Center
10:03PM 34.9350 -94.0600 99° East 456 525 27,500 -1,920 Descending Memphis Center
10:04PM 34.9161 -93.9172 99° East 440 506 25,300 -2,520 Descending Memphis Center
10:05PM 34.8992 -93.7850 99° East 410 472 22,400 -2,340 Descending Memphis Center
10:06PM 34.8822 -93.6561 99° East 395 455 20,600 -1,380 Descending Memphis Center
10:07PM 34.8664 -93.5364 99° East 375 432 19,700 -960 Descending Memphis Center
10:08PM 34.8497 -93.4228 100° East 355 409 18,700 -1,560 Descending Memphis Center
10:09PM 34.8364 -93.3150 99° East 335 386 16,600 -2,280 Descending Memphis Center
10:10PM 34.8217 -93.2081 99° East 327 376 14,100 -2,400 Descending Memphis Center
10:11PM 34.8044 -93.0833 100° East 318 366 11,800 -2,160 Descending Memphis Center
10:11PM 34.8044 -93.0856 270° West 309 356 11,800 -1,800 Level Memphis Center
10:12PM 34.7908 -92.9814 99° East 312 359 10,000 -1,140 Descending Memphis Center
10:13PM 34.7792 -92.9122 102° East 307 353 10,000  Level Memphis Center
10:13PM 34.7767 -92.8819 96° East 306 352 10,000  Level Memphis Center
10:14PM 34.7697 -92.8267 99° East 294 338 10,000 -300 Level Memphis Center
10:14PM 34.7639 -92.7853 100° East 296 341 9,700 -1,620 Descending Memphis Center
10:15PM 34.7556 -92.7339 101° East 287 330 8,400 -1,800 Descending Memphis Center
10:15PM 34.7508 -92.6911 98° East 289 333 7,900 -1,380 Descending Memphis Center
10:16PM 34.7414 -92.6383 102° East 273 314 7,000 -1,380 Descending Memphis Center
10:16PM 34.7378 -92.6014 97° East 277 319 6,500 -1,380 Descending Memphis Center
10:17PM 34.7322 -92.5631 100° East 253 291 5,800 -1,320 Descending Memphis Center
10:17PM 34.7264 -92.5186 99° East 259 298 5,200 -720 Descending Memphis Center
10:18PM 34.7181 -92.4703 102° East 243 280 5,000 -240 Descending Memphis Center
10:19PM 34.7153 -92.4389 96° East 248 285 5,000  Level Memphis Center
10:19PM 34.7064 -92.3900 102° East 233 268 5,000  Level Memphis Center
10:20PM 34.6992 -92.3639 109° East 243 280 5,000  Level Memphis Center
10:20PM 34.6631 -92.3547 168° South 226 260 5,000  Level Memphis Center
10:21PM 34.6372 -92.3442 161° South 232 267 5,000 -120 Level Memphis Center
10:21PM 34.5953 -92.3336 168° South 228 262 4,900 -600 Descending Memphis Center
10:22PM 34.5756 -92.3261 163° South 229 264 4,400 -1,020 Descending Memphis Center
10:22PM 34.5422 -92.3167 167° South 220 253 4,000 -420 Descending Memphis Center
10:23PM 34.5125 -92.3033 160° South 206 237 4,000 -240 Level Memphis Center
10:23PM 34.4956 -92.2994 169° South 179 206 3,800 -720 Descending Memphis Center
10:24PM 34.4625 -92.2867 162° South 190 219 3,300 -600 Descending Memphis Center
10:24PM 34.4550 -92.2792 140° Southeast 183 211 3,300  Level Memphis Center
10:25PM 34.4606 -92.2158 84° East 201 231 3,300  Level Memphis Center
10:26PM 34.5111 -92.2253 351° North 186 214 3,300 -600 Level Memphis Center
10:27PM 34.5519 -92.2414 342° North 190 219 2,300 -1,320 Descending Memphis Center
10:27PM 34.5642 -92.2447 347° North 187 215 2,000 -300 Descending Memphis Center
10:28PM 34.6006 -92.2433 North 184 212 2,000  Level Memphis Center
10:28PM 34.6122 -92.2442 357° North 175 201 2,000 -240 Level Memphis Center
10:29PM 34.6467 -92.2386 North 174 200 1,800 -420 Descending Memphis Center
10:29PM 34.6561 -92.2414 346° North 153 176 1,600 -600 Descending Memphis Center
10:30PM 34.6831 -92.2383 North 156 180 1,200 -480 Descending Memphis Center
10:30PM 34.6917 -92.2417 342° North 113 130 1,100 -300 Descending Memphis Center
10:31PM 34.7214 -92.2364 North 143 165 900 -300 Descending Memphis Center